createdAt,value
2022-09-23T00:01:08.613Z,30.27
2022-09-23T00:03:54.552Z,28.02
2022-09-23T00:06:41.657Z,23.63
2022-09-23T00:09:27.235Z,25.08
2022-09-23T00:12:13.615Z,24.15
2022-09-23T00:14:59.070Z,26.20
2022-09-23T00:17:45.524Z,22.63
2022-09-23T00:20:32.111Z,23.52
2022-09-23T00:23:18.160Z,21.83
2022-09-23T00:26:05.842Z,23.20
2022-09-23T00:28:52.007Z,22.48
2022-09-23T00:31:37.752Z,21.00
2022-09-23T00:34:23.688Z,19.38
2022-09-23T00:37:09.076Z,19.77
2022-09-23T00:39:55.644Z,22.08
2022-09-23T00:42:49.495Z,22.30
2022-09-23T00:45:35.572Z,20.80
2022-09-23T00:48:21.375Z,20.65
2022-09-23T00:51:09.937Z,22.48
2022-09-23T00:53:55.722Z,21.50
2022-09-23T00:56:41.720Z,23.00
2022-09-23T00:59:29.037Z,21.80
2022-09-23T01:02:15.616Z,21.25
2022-09-23T01:05:03.977Z,22.85
2022-09-23T01:07:50.239Z,22.33
2022-09-23T01:10:41.731Z,25.35
2022-09-23T01:14:09.549Z,24.55
2022-09-23T01:17:27.997Z,18.50
2022-09-23T01:20:19.854Z,22.33
2022-09-23T01:23:30.394Z,22.17
2022-09-23T01:26:41.213Z,18.88
2022-09-23T01:29:48.520Z,18.88
2022-09-23T01:32:42.362Z,18.33
2022-09-23T01:35:46.039Z,20.80
2022-09-23T01:38:53.117Z,19.38
2022-09-23T01:42:01.394Z,18.25
2022-09-23T01:44:56.317Z,20.10
2022-09-23T01:48:10.432Z,20.08
2022-09-23T01:51:02.472Z,20.60
2022-09-23T01:53:53.616Z,22.75
2022-09-23T01:56:44.248Z,23.73
2022-09-23T01:59:36.249Z,23.23
2022-09-23T02:02:38.099Z,21.20
2022-09-23T02:05:33.582Z,20.35
2022-09-23T02:08:27.467Z,22.42
2022-09-23T02:11:15.393Z,19.15
2022-09-23T02:14:06.370Z,21.25
2022-09-23T02:16:52.517Z,22.75
2022-09-23T02:19:48.318Z,19.50
2022-09-23T02:22:42.359Z,19.77
2022-09-23T02:26:00.828Z,19.35
2022-09-23T02:28:56.374Z,20.90
2022-09-23T02:31:45.763Z,20.33
2022-09-23T02:34:40.279Z,22.63
2022-09-23T02:37:29.066Z,19.63
2022-09-23T02:40:16.987Z,20.33
2022-09-23T02:43:10.427Z,18.50
2022-09-23T02:45:56.310Z,20.67
2022-09-23T02:49:04.512Z,18.88
2022-09-23T02:51:50.906Z,19.08
2022-09-23T02:54:37.252Z,20.27
2022-09-23T02:57:23.098Z,18.75
2022-09-23T03:00:09.609Z,18.75
2022-09-23T03:03:06.205Z,18.35
2022-09-23T03:05:57.929Z,19.50
2022-09-23T03:08:50.442Z,21.15
2022-09-23T03:11:39.859Z,24.35
2022-09-23T03:14:41.226Z,15.93
2022-09-23T03:17:33.323Z,18.73
2022-09-23T03:20:32.250Z,20.70
2022-09-23T03:23:27.810Z,19.98
2022-09-23T03:26:31.425Z,17.85
2022-09-23T03:29:19.322Z,19.65
2022-09-23T03:32:08.276Z,22.63
2022-09-23T03:35:00.297Z,26.73
2022-09-23T03:38:12.064Z,27.88
2022-09-23T03:40:58.452Z,30.85
2022-09-23T03:43:45.206Z,26.38
2022-09-23T03:46:34.614Z,29.40
2022-09-23T03:49:27.335Z,30.52
2022-09-23T03:52:13.173Z,29.25
2022-09-23T03:54:58.516Z,22.65
2022-09-23T03:57:45.179Z,24.48
2022-09-23T04:00:30.710Z,20.00
2022-09-23T04:03:19.149Z,20.92
2022-09-23T04:06:05.203Z,17.83
2022-09-23T04:08:51.095Z,20.60
2022-09-23T04:11:36.598Z,18.08
2022-09-23T04:14:22.901Z,15.52
2022-09-23T04:17:08.583Z,17.77
2022-09-23T04:19:54.597Z,15.95
2022-09-23T04:22:40.189Z,20.02
2022-09-23T04:25:26.293Z,16.77
2022-09-23T04:28:11.746Z,21.00
2022-09-23T04:30:57.928Z,22.38
2022-09-23T04:33:43.855Z,21.45
2022-09-23T04:36:30.417Z,24.95
2022-09-23T04:39:16.727Z,37.17
2022-09-23T04:42:04.150Z,24.80
2022-09-23T04:44:49.740Z,30.00
2022-09-23T04:47:35.370Z,19.70
2022-09-23T04:50:21.109Z,24.50
2022-09-23T04:53:06.882Z,23.05
2022-09-23T04:55:52.805Z,27.40
2022-09-23T04:58:40.082Z,20.13
2022-09-23T05:01:27.573Z,24.63
2022-09-23T05:04:14.325Z,28.48
2022-09-23T05:07:03.281Z,23.55
2022-09-23T05:09:49.765Z,29.17
2022-09-23T05:12:35.414Z,24.80
2022-09-23T05:15:21.681Z,29.88
2022-09-23T05:18:07.740Z,29.83
2022-09-23T05:20:55.506Z,22.30
2022-09-23T05:23:42.422Z,25.13
2022-09-23T05:26:30.768Z,26.30
2022-09-23T05:29:21.561Z,22.27
2022-09-23T05:32:28.875Z,28.42
2022-09-23T05:35:15.285Z,34.85
2022-09-23T05:38:01.700Z,28.38
2022-09-23T05:40:48.337Z,30.95
2022-09-23T05:43:35.115Z,29.83
2022-09-23T05:46:23.666Z,28.23
2022-09-23T05:49:10.457Z,26.00
2022-09-23T05:51:56.776Z,27.65
2022-09-23T05:54:42.519Z,25.13
2022-09-23T05:57:28.545Z,26.38
2022-09-23T06:00:15.479Z,28.45
2022-09-23T06:03:01.121Z,28.55
2022-09-23T06:05:47.390Z,25.40
2022-09-23T06:08:34.603Z,27.55
2022-09-23T06:11:21.557Z,23.20
2022-09-23T06:14:09.607Z,27.30
2022-09-23T06:16:56.256Z,21.08
2022-09-23T06:19:41.989Z,21.35
2022-09-23T06:22:27.861Z,20.98
2022-09-23T06:25:13.301Z,19.67
2022-09-23T06:27:59.632Z,16.00
2022-09-23T06:30:44.993Z,15.77
2022-09-23T06:33:36.802Z,17.08
2022-09-23T06:36:39.049Z,28.30
2022-09-23T06:39:27.633Z,38.80
2022-09-23T06:42:13.511Z,29.55
2022-09-23T06:44:59.417Z,33.08
2022-09-23T06:47:45.018Z,36.33
2022-09-23T06:50:30.995Z,29.58
2022-09-23T06:53:17.170Z,32.83
2022-09-23T06:56:08.177Z,24.77
2022-09-23T07:01:41.646Z,27.27
2022-09-23T07:04:29.463Z,27.05
2022-09-23T07:07:16.426Z,30.48
2022-09-23T07:10:01.918Z,27.88
2022-09-23T07:12:47.950Z,24.95
2022-09-23T07:15:33.904Z,21.45
2022-09-23T07:18:23.544Z,15.70
2022-09-23T07:21:15.243Z,12.30
2022-09-23T07:24:01.838Z,20.88
2022-09-23T07:26:47.297Z,14.07
2022-09-23T07:29:43.989Z,16.23
2022-09-23T07:32:43.371Z,12.15
2022-09-23T07:35:33.464Z,12.00
2022-09-23T07:38:19.418Z,11.57
2022-09-23T07:41:10.313Z,11.90
2022-09-23T07:43:59.017Z,12.90
2022-09-23T07:46:44.955Z,14.23
2022-09-23T07:49:30.511Z,12.00
2022-09-23T07:52:17.066Z,12.38
2022-09-23T07:55:03.948Z,9.52
2022-09-23T07:57:50.111Z,10.13
2022-09-23T08:00:36.174Z,8.60
2022-09-23T08:03:22.027Z,9.70
2022-09-23T08:06:10.797Z,9.35
2022-09-23T08:09:01.096Z,9.43
2022-09-23T08:11:47.441Z,6.50
2022-09-23T08:14:33.421Z,9.02
2022-09-23T08:17:19.389Z,7.90
2022-09-23T08:20:06.049Z,8.35
2022-09-23T08:22:51.625Z,8.25
2022-09-23T08:25:37.242Z,7.93
2022-09-23T08:28:22.924Z,10.48
2022-09-23T08:31:09.124Z,6.88
2022-09-23T08:33:55.887Z,9.55
2022-09-23T08:36:42.188Z,9.30
2022-09-23T08:39:28.398Z,7.43
2022-09-23T08:42:28.298Z,10.30
2022-09-23T08:45:25.698Z,10.77
2022-09-23T08:48:15.753Z,13.10
2022-09-23T08:51:06.848Z,8.67
2022-09-23T08:53:52.815Z,7.80
2022-09-23T08:56:38.935Z,9.20
2022-09-23T08:59:29.156Z,9.25
2022-09-23T09:02:19.799Z,6.05
2022-09-23T09:05:09.169Z,10.63
2022-09-23T09:07:57.801Z,8.75
2022-09-23T09:10:46.720Z,9.25
2022-09-23T09:13:34.564Z,7.78
2022-09-23T09:17:02.140Z,10.52
2022-09-23T09:20:04.889Z,8.43
2022-09-23T09:22:57.715Z,13.40
2022-09-23T09:25:50.146Z,11.77
2022-09-23T09:28:59.099Z,9.43
2022-09-23T09:31:52.144Z,9.50
2022-09-23T09:34:45.254Z,6.22
2022-09-23T09:37:44.667Z,5.65
2022-09-23T09:40:31.009Z,3.67
2022-09-23T09:43:23.416Z,4.25
2022-09-23T09:46:40.660Z,5.30
2022-09-23T09:49:40.798Z,5.25
2022-09-23T09:52:29.655Z,2.38
2022-09-23T09:55:25.407Z,2.33
2022-09-23T09:58:16.478Z,3.30
2022-09-23T10:01:02.442Z,2.60
2022-09-23T10:03:49.533Z,1.98
2022-09-23T10:06:36.006Z,1.40
2022-09-23T10:09:22.135Z,1.65
2022-09-23T10:12:18.839Z,1.95
2022-09-23T10:15:05.121Z,2.00
2022-09-23T10:17:51.829Z,2.20
2022-09-23T10:20:38.999Z,2.58
2022-09-23T10:23:27.821Z,2.92
2022-09-23T10:26:15.157Z,1.58
2022-09-23T10:29:03.219Z,2.05
2022-09-23T10:31:52.472Z,1.38
2022-09-23T10:34:43.172Z,2.83
2022-09-23T10:37:49.664Z,4.38
2022-09-23T10:40:56.970Z,2.17
2022-09-23T10:44:31.647Z,2.55
2022-09-23T10:47:56.866Z,2.25
2022-09-23T10:50:49.506Z,1.67
2022-09-23T10:53:57.245Z,2.42
2022-09-23T10:56:53.627Z,2.00
2022-09-23T10:59:48.325Z,1.35
2022-09-23T11:02:34.372Z,2.38
2022-09-23T11:05:30.598Z,2.20
2022-09-23T11:08:27.396Z,1.45
2022-09-23T11:11:23.520Z,1.70
2022-09-23T11:14:16.821Z,2.53
2022-09-23T11:17:14.798Z,2.17
2022-09-23T11:20:23.186Z,4.88
2022-09-23T11:23:23.513Z,2.33
2022-09-23T11:26:33.277Z,2.30
2022-09-23T11:29:42.558Z,3.83
2022-09-23T11:33:05.934Z,1.75
2022-09-23T11:35:57.364Z,1.90
2022-09-23T11:38:46.706Z,1.63
2022-09-23T11:41:35.557Z,3.00
2022-09-23T11:44:47.157Z,1.70
2022-09-23T11:47:42.410Z,2.08
2022-09-23T11:50:34.365Z,1.38
2022-09-23T11:53:23.889Z,2.88
2022-09-23T11:56:35.437Z,2.05
2022-09-23T11:59:40.642Z,1.38
2022-09-23T12:03:05.483Z,3.30
2022-09-23T12:06:05.250Z,3.40
2022-09-23T12:08:57.712Z,2.28
2022-09-23T12:11:58.571Z,1.98
2022-09-23T12:15:02.649Z,1.52
2022-09-23T12:18:13.760Z,1.90
2022-09-23T12:21:46.333Z,1.30
2022-09-23T12:25:38.159Z,1.17
2022-09-23T12:28:45.188Z,1.35
2022-09-23T12:31:33.091Z,11.40
2022-09-23T12:34:47.970Z,14.13
2022-09-23T12:37:38.071Z,12.35
2022-09-23T12:40:32.132Z,14.90
2022-09-23T12:43:20.301Z,12.38
2022-09-23T12:46:20.286Z,6.95
2022-09-23T12:49:20.825Z,6.90
2022-09-23T12:52:12.752Z,3.90
2022-09-23T12:55:29.725Z,4.85
2022-09-23T12:58:43.411Z,4.82
2022-09-23T13:01:36.266Z,4.15
2022-09-23T13:05:01.383Z,3.30
2022-09-23T13:07:48.853Z,3.28
2022-09-23T13:10:43.290Z,2.72
2022-09-23T13:13:40.849Z,2.13
2022-09-23T13:16:39.601Z,4.32
2022-09-23T13:19:28.204Z,1.92
2022-09-23T13:22:14.380Z,2.30
2022-09-23T13:25:01.371Z,1.77
2022-09-23T13:27:52.839Z,2.85
2022-09-23T13:30:48.128Z,2.45
2022-09-23T13:33:39.464Z,2.00
2022-09-23T13:36:25.740Z,2.42
2022-09-23T13:39:16.136Z,2.78
2022-09-23T13:42:04.218Z,2.13
2022-09-23T13:44:52.847Z,4.18
2022-09-23T13:47:43.324Z,2.83
2022-09-23T13:50:34.212Z,2.05
2022-09-23T13:53:27.010Z,2.97
2022-09-23T13:56:14.877Z,1.70
2022-09-23T13:59:26.794Z,1.63
2022-09-23T14:02:20.272Z,2.50
2022-09-23T14:05:12.561Z,1.70
2022-09-23T14:07:58.278Z,1.60
2022-09-23T14:10:47.273Z,2.30
2022-09-23T14:13:40.169Z,1.27
2022-09-23T14:16:26.900Z,3.08
2022-09-23T14:19:18.166Z,1.27
2022-09-23T14:22:03.780Z,1.83
2022-09-23T14:24:50.282Z,3.67
2022-09-23T14:27:37.045Z,3.78
2022-09-23T14:30:23.503Z,3.30
2022-09-23T14:33:11.630Z,2.92
2022-09-23T14:36:09.039Z,4.40
2022-09-23T14:39:10.419Z,2.35
2022-09-23T14:41:57.272Z,2.97
2022-09-23T14:44:43.021Z,2.28
2022-09-23T14:47:30.179Z,1.92
2022-09-23T14:50:47.129Z,3.70
2022-09-23T14:53:41.582Z,1.55
2022-09-23T14:56:27.436Z,1.75
2022-09-23T14:59:33.686Z,2.70
2022-09-23T15:02:33.046Z,4.10
2022-09-23T15:05:23.920Z,4.93
2022-09-23T15:10:58.485Z,3.42
2022-09-23T15:13:47.035Z,3.72
2022-09-23T15:16:32.890Z,6.90
2022-09-23T15:19:20.303Z,3.97
2022-09-23T15:22:07.652Z,4.20
2022-09-23T15:24:54.850Z,4.93
2022-09-23T15:27:40.929Z,8.70
2022-09-23T15:30:26.901Z,5.97
2022-09-23T15:33:15.280Z,7.82
2022-09-23T15:36:01.275Z,7.03
2022-09-23T15:38:47.142Z,11.25
2022-09-23T15:41:33.603Z,29.67
2022-09-23T15:44:21.865Z,35.25
2022-09-23T15:47:13.443Z,39.67
2022-09-23T15:49:59.839Z,28.42
2022-09-23T15:52:45.877Z,24.92
2022-09-23T15:55:32.030Z,17.23
2022-09-23T15:58:21.559Z,17.83
2022-09-23T16:01:12.911Z,14.65
2022-09-23T16:04:01.139Z,11.60
2022-09-23T16:06:48.366Z,10.93
2022-09-23T16:09:33.815Z,15.07
2022-09-23T16:12:19.518Z,13.93
2022-09-23T16:15:11.849Z,12.88
2022-09-23T16:17:57.774Z,16.48
2022-09-23T16:20:45.098Z,15.82
2022-09-23T16:23:34.728Z,18.98
2022-09-23T16:26:26.792Z,17.38
2022-09-23T16:29:12.694Z,22.30
2022-09-23T16:31:58.421Z,28.13
2022-09-23T16:34:45.906Z,31.20
2022-09-23T16:37:31.854Z,47.00
2022-09-23T16:40:22.818Z,39.58
2022-09-23T16:45:54.887Z,43.17
2022-09-23T16:48:41.081Z,44.28
2022-09-23T16:51:30.762Z,54.38
2022-09-23T16:54:33.633Z,54.10
2022-09-23T16:57:24.221Z,57.45
2022-09-23T17:00:33.238Z,55.15
2022-09-23T17:03:41.255Z,56.70
2022-09-23T17:06:27.954Z,62.55
2022-09-23T17:09:14.544Z,68.57
2022-09-23T17:12:08.415Z,63.88
2022-09-23T17:15:03.924Z,67.50
2022-09-23T17:17:49.921Z,77.38
2022-09-23T17:20:36.155Z,63.97
2022-09-23T17:23:21.893Z,65.57
2022-09-23T17:26:12.550Z,76.18
2022-09-23T17:28:59.643Z,114.72
2022-09-23T17:31:46.617Z,89.03
2022-09-23T17:34:33.354Z,72.80
2022-09-23T17:37:19.919Z,71.07
2022-09-23T17:40:06.380Z,69.70
2022-09-23T17:42:55.594Z,65.40
2022-09-23T17:45:41.632Z,56.20
2022-09-23T17:48:27.473Z,50.22
2022-09-23T17:51:13.754Z,54.53
2022-09-23T17:53:59.949Z,55.78
2022-09-23T17:56:45.930Z,57.38
2022-09-23T17:59:31.738Z,58.72
2022-09-23T18:02:28.769Z,64.40
2022-09-23T18:05:15.049Z,75.00
2022-09-23T18:08:05.811Z,78.70
2022-09-23T18:10:52.375Z,97.38
2022-09-23T18:13:38.451Z,75.05
2022-09-23T18:16:26.547Z,56.53
2022-09-23T18:19:14.529Z,62.20
2022-09-23T18:22:01.631Z,53.53
2022-09-23T18:24:47.193Z,68.93
2022-09-23T18:27:36.154Z,62.95
2022-09-23T18:30:21.844Z,66.20
2022-09-23T18:33:08.280Z,78.30
2022-09-23T18:35:53.662Z,66.70
2022-09-23T18:38:40.727Z,88.72
2022-09-23T18:41:27.852Z,86.65
2022-09-23T18:44:14.183Z,92.25
2022-09-23T18:47:00.406Z,90.97
2022-09-23T18:50:04.739Z,82.80
2022-09-23T18:52:50.741Z,77.15
2022-09-23T18:55:37.670Z,114.72
2022-09-23T18:58:23.461Z,98.75
2022-09-23T19:01:10.247Z,83.93
2022-09-23T19:03:57.292Z,85.35
2022-09-23T19:06:43.184Z,78.82
2022-09-23T19:09:29.039Z,68.55
2022-09-23T19:12:15.242Z,68.05
2022-09-23T19:15:00.671Z,69.82
2022-09-23T19:17:47.168Z,67.45
2022-09-23T19:20:32.739Z,72.60
2022-09-23T19:23:19.998Z,132.07
2022-09-23T19:26:11.037Z,113.82
2022-09-23T19:28:58.105Z,107.18
2022-09-23T19:31:44.464Z,106.30
2022-09-23T19:34:30.965Z,155.30
2022-09-23T19:37:16.669Z,87.82
2022-09-23T19:40:02.521Z,70.63
2022-09-23T19:42:48.601Z,82.25
2022-09-23T19:45:36.120Z,92.68
2022-09-23T19:48:22.408Z,93.38
2022-09-23T19:51:08.165Z,87.72
2022-09-23T19:54:05.170Z,75.93
2022-09-23T19:56:51.527Z,71.57
2022-09-23T19:59:40.228Z,69.80
2022-09-23T20:02:26.274Z,74.45
2022-09-23T20:05:13.873Z,73.28
2022-09-23T20:08:04.425Z,100.18
2022-09-23T20:10:50.690Z,94.15
2022-09-23T20:13:37.912Z,83.18
2022-09-23T20:16:23.984Z,84.05
2022-09-23T20:19:10.128Z,82.85
2022-09-23T20:22:14.222Z,89.55
2022-09-23T20:25:00.636Z,86.55
2022-09-23T20:27:51.237Z,78.30
2022-09-23T20:30:39.120Z,92.35
2022-09-23T20:33:24.500Z,86.65
2022-09-23T20:36:13.267Z,88.30
2022-09-23T20:39:00.837Z,74.22
2022-09-23T20:41:50.467Z,79.47
2022-09-23T20:47:47.346Z,66.13
2022-09-23T20:50:33.376Z,48.08
2022-09-23T20:53:20.164Z,51.67
2022-09-23T20:56:06.411Z,45.17
2022-09-23T20:58:54.162Z,43.15
2022-09-23T21:01:41.113Z,38.00
2022-09-23T21:04:27.991Z,27.42
2022-09-23T21:07:13.748Z,34.30
2022-09-23T21:10:05.178Z,26.42
2022-09-23T21:12:50.720Z,26.50
2022-09-23T21:15:36.965Z,25.33
2022-09-23T21:18:24.044Z,22.00
2022-09-23T21:21:11.155Z,25.25
2022-09-23T21:24:11.749Z,25.85
2022-09-23T21:27:03.934Z,29.55
2022-09-23T21:29:49.983Z,26.52
2022-09-23T21:32:36.335Z,24.75
2022-09-23T21:35:21.840Z,27.48
2022-09-23T21:38:07.819Z,30.10
2022-09-23T21:41:00.133Z,33.97
2022-09-23T21:43:46.044Z,38.78
2022-09-23T21:46:33.900Z,34.33
2022-09-23T21:49:20.507Z,39.95
2022-09-23T21:52:07.897Z,35.17
2022-09-23T21:54:53.919Z,37.95
2022-09-23T21:57:39.422Z,42.53
2022-09-23T22:00:26.479Z,32.15
2022-09-23T22:03:12.449Z,32.42
2022-09-23T22:06:08.924Z,30.92
2022-09-23T22:08:59.119Z,28.00
2022-09-23T22:12:04.078Z,31.40
2022-09-23T22:14:51.688Z,34.80
2022-09-23T22:17:37.512Z,35.65
2022-09-23T22:20:23.373Z,32.42
2022-09-23T22:23:09.409Z,26.52
2022-09-23T22:26:02.842Z,32.72
2022-09-23T22:29:08.836Z,26.63
2022-09-23T22:32:13.163Z,22.48
2022-09-23T22:34:59.181Z,23.88
2022-09-23T22:37:48.168Z,23.02
2022-09-23T22:40:38.118Z,22.58
2022-09-23T22:43:24.342Z,23.33
2022-09-23T22:46:10.273Z,22.50
2022-09-23T22:48:56.276Z,22.17
2022-09-23T22:51:43.045Z,24.25
2022-09-23T22:54:34.458Z,21.67
2022-09-23T22:58:31.233Z,25.70
2022-09-23T23:01:18.263Z,21.63
2022-09-23T23:04:05.900Z,21.23
2022-09-23T23:06:52.090Z,22.02
2022-09-23T23:09:37.429Z,23.35
2022-09-23T23:12:24.178Z,24.27
2022-09-23T23:15:12.799Z,22.63
2022-09-23T23:17:59.229Z,18.90
2022-09-23T23:20:45.722Z,20.52
2022-09-23T23:23:31.727Z,20.85
2022-09-23T23:26:22.574Z,22.80
2022-09-23T23:29:11.752Z,24.08
2022-09-23T23:31:57.308Z,19.92
2022-09-23T23:34:43.941Z,22.90
2022-09-23T23:37:30.037Z,26.27
2022-09-23T23:40:16.112Z,21.92
2022-09-23T23:43:04.151Z,19.45
2022-09-23T23:45:51.548Z,21.27
2022-09-23T23:48:37.720Z,28.20
2022-09-23T23:51:26.557Z,26.00
2022-09-23T23:54:12.823Z,30.40
2022-09-23T23:56:58.813Z,25.35
2022-09-23T23:59:44.666Z,25.38
